ADDS METAR Data INFO
IDs: Format: Raw Decoded Include TAF

Data at: 0307 UTC 22 Apr 2018

KT35 220255Z AUTO 34009G20KT 5SM BR SCT004 BKN007 19/19 A2994 RMK AO2 LTG DSNT E 60003 T01940191
KT35 220235Z AUTO 16003KT 7SM CLR 19/18 A2989 RMK AO2 T01870183
KT35 220215Z AUTO 17004KT 7SM CLR 19/19 A2988 RMK AO2 LTG DSNT SE T01890186
KT35 220155Z AUTO 16005KT 4SM BR SCT002 19/19 A2987 RMK AO2 LTG DSNT SE T01900185
KT35 220135Z AUTO 18005KT 1/4SM FG OVC002 18/18 A2986 RMK AO2 LTG DSNT SE AND S T01820178
KT35 220115Z AUTO 00000KT 2SM BR CLR 19/19 A2987 RMK AO2 T01930190
KT35 220055Z AUTO 14003KT 1 3/4SM BR SCT003 SCT085 20/19 A2986 RMK AO2 P0003 T01950190
KT35 220035Z AUTO 13004KT 3SM BR SCT009 SCT028 BKN080 20/19 A2986 RMK AO2 LTG DSNT SE P0003 T01980193
KT35 220015Z AUTO 12005KT 1 3/4SM -RA BKN016 BKN029 OVC037 20/20 A2988 RMK AO2 LTG DSNT S P0003 T02000195
KT35 212355Z AUTO 00000KT 2SM +RA SCT005 OVC012 20/19 A2990 RMK AO2 LTG DSNT S P0004 60006 T01990192 10210 20193
KT35 212335Z AUTO 31003KT 4SM -RA SCT005 OVC014 20/19 A2990 RMK AO2 LTG DSNT E AND S T02000192
KT35 212315Z AUTO 00000KT 3SM -DZ OVC016 20/19 A2989 RMK AO2 LTG DSNT E AND S T02000191
KT35 212255Z AUTO 00000KT 4SM DZ OVC016 20/19 A2989 RMK AO2 P0002 T02000190
KT35 212235Z AUTO 00000KT 5SM VCTS BR BKN014 OVC020 20/19 A2990 RMK AO2 LTG DSNT E P0001 T02000190
KT35 212215Z AUTO 23003KT 5SM VCTS BR OVC014 20/19 A2990 RMK AO2 LTG DSNT E P0001 T01990190
KT35 212155Z AUTO 21004KT 5SM RA OVC014 20/19 A2991 RMK AO2 T02010190
KT35 212135Z AUTO 18004KT 5SM DZ OVC014 20/19 A2991 RMK AO2 T02010185
KT35 212115Z AUTO 21006KT 10SM OVC014 21/18 A2992 RMK AO2 T02060180
KT35 212055Z AUTO 19007KT 10SM OVC014 21/18 A2992 RMK AO2 T02070179
KT35 212035Z AUTO 19006KT 10SM OVC014 21/18 A2992 RMK AO2 T02100180
KT35 212015Z AUTO 17008KT 10SM OVC014 21/18 A2992 RMK AO2 T02080178
KT35 211955Z AUTO 16007KT 10SM OVC014 21/18 A2994 RMK AO2 T02060176
KT35 211935Z AUTO 16007KT 10SM OVC012 21/18 A2994 RMK AO2 T02050176
KT35 211915Z AUTO 16007G15KT 10SM OVC012 20/17 A2994 RMK AO2 LTG DSNT NE AND E T02010173
KT35 211855Z AUTO 17006KT 10SM OVC012 20/17 A2995 RMK AO2 LTG DSNT NE T02000170
KT35 211835Z AUTO 16007KT 10SM BKN014 OVC033 20/17 A2995 RMK AO2 T01950167
KT35 211815Z AUTO 16009G15KT 10SM SCT014 SCT020 OVC033 20/16 A2996 RMK AO2 T01960164
KT35 211755Z AUTO 15009G17KT 10SM SCT014 BKN034 OVC075 19/16 A2996 RMK AO2 T01940161 10195 20145
KT35 211735Z AUTO 15011G17KT 10SM SCT014 BKN043 OVC090 20/16 A2997 RMK AO2 LTG DSNT NE T01950160
KT35 211715Z AUTO 15013G18KT 10SM SCT014 SCT039 OVC090 19/16 A2998 RMK AO2 LTG DSNT N T01940155
KT35 211655Z AUTO 14010G14KT 10SM BKN041 OVC049 19/15 A2997 RMK AO2 T01850150
KT35 211635Z AUTO 16009G14KT 10SM BKN042 OVC050 18/15 A3000 RMK AO2 T01810146
KT35 211615Z AUTO 15009G16KT 10SM OVC050 18/15 A3001 RMK AO2 LTG DSNT N T01830145
KT35 211555Z AUTO 14007KT 10SM SCT015 BKN024 OVC060 18/14 A3001 RMK AO2 T01800140
KT35 211535Z AUTO 14007KT 10SM OVC015 18/14 A3001 RMK AO2 T01760139
KT35 211515Z AUTO 13009G15KT 10SM OVC015 18/14 A3001 RMK AO2 T01750136
KT35 211455Z AUTO 14007G15KT 10SM BKN017 BKN065 OVC090 18/14 A3002 RMK AO2 T01750135
KT35 211435Z AUTO 13008G16KT 10SM BKN015 BKN080 17/13 A3001 RMK AO2 LTG DSNT NW T01700130
KT35 211415Z AUTO 13010G14KT 10SM OVC013 17/13 A3001 RMK AO2 T01650125
KT35 211355Z AUTO 12007KT 10SM BKN013 OVC018 16/12 A3002 RMK AO2 LTG DSNT N T01590121
KT35 211335Z AUTO 12007KT 10SM BKN012 OVC019 16/12 A3003 RMK AO2 T01550118
KT35 211315Z AUTO 11007KT 10SM OVC012 15/12 A3003 RMK AO2 T01520119
KT35 211255Z AUTO 10005KT 10SM OVC012 15/12 A3003 RMK AO2 T01480120
KT35 211235Z AUTO 10006KT 10SM OVC012 15/12 A3003 RMK AO2 T01450120
KT35 211215Z AUTO 08004KT 10SM OVC012 15/12 A3003 RMK AO2 T01450120
KT35 211155Z AUTO 00000KT 10SM OVC012 15/12 A3003 RMK AO2 T01450120 10145 20121
KT35 211135Z AUTO 00000KT 10SM OVC012 15/12 A3003 RMK AO2 T01450118
KT35 211115Z AUTO 00000KT 10SM OVC012 15/12 A3003 RMK AO2 T01450117
KT35 211055Z AUTO 00000KT 10SM OVC014 15/12 A3003 RMK AO2 T01450115
KT35 211035Z AUTO 00000KT 10SM OVC016 14/11 A3002 RMK AO2 T01430113
KT35 211015Z AUTO 08003KT 10SM OVC016 14/11 A3003 RMK AO2 T01430111
KT35 210955Z AUTO 08004KT 10SM SCT016 OVC041 14/11 A3003 RMK AO2 T01410110
KT35 210935Z AUTO 08006KT 10SM BKN032 OVC039 14/11 A3001 RMK AO2 T01380106
KT35 210915Z AUTO 09006KT 10SM OVC030 14/11 A3000 RMK AO2 T01360105
KT35 210855Z AUTO 09004KT 10SM OVC026 13/10 A3000 RMK AO2 T01330104
KT35 210835Z AUTO 10005KT 10SM OVC026 13/10 A3001 RMK AO2 T01300101
KT35 210815Z AUTO 09005KT 10SM OVC024 13/10 A3001 RMK AO2 T01270100
KT35 210755Z AUTO 10004KT 10SM BKN024 BKN029 13/10 A3002 RMK AO2 T01260100
KT35 210735Z AUTO 11003KT 10SM SCT027 12/10 A3003 RMK AO2 T01210097
KT35 210715Z AUTO 12003KT 10SM CLR 12/10 A3004 RMK AO2 T01230096
KT35 210655Z AUTO 00000KT 10SM CLR 13/10 A3006 RMK AO2 T01260097
KT35 210635Z AUTO 13003KT 10SM CLR 14/10 A3006 RMK AO2 T01350096
KT35 210620Z AUTO 13004KT 10SM CLR 14/10 A3006 RMK AO2 T01350095
KT35 210555Z AUTO 14006KT 10SM CLR 14/09 A3007 RMK AO2 T01370092 10185 20131 402090112
KT35 210535Z AUTO 13007KT 10SM CLR 14/09 A3008 RMK AO2 T01380090
KT35 210515Z AUTO 14005KT 10SM CLR 13/09 A3008 RMK AO2 T01330085
KT35 210455Z AUTO 14003KT 10SM CLR 13/08 A3008 RMK AO2 T01320082
KT35 210435Z AUTO 13005KT 10SM CLR 13/08 A3008 RMK AO2 T01310081
KT35 210415Z AUTO 13005KT 10SM CLR 13/08 A3009 RMK AO2 T01320080
KT35 210355Z AUTO 13005KT 10SM CLR 14/08 A3009 RMK AO2 T01360080
KT35 210335Z AUTO 14005KT 10SM CLR 14/08 A3010 RMK AO2 T01370078
KT35 210315Z AUTO 14005KT 10SM CLR 14/08 A3010 RMK AO2 T01400076
KT35 210255Z AUTO 14005KT 10SM CLR 14/08 A3010 RMK AO2 T01420076
KT35 210235Z AUTO 14005KT 10SM CLR 14/08 A3010 RMK AO2 T01430077
KT35 210215Z AUTO 13004KT 10SM CLR 15/08 A3009 RMK AO2 T01480076
KT35 210155Z AUTO 15005KT 10SM CLR 15/08 A3009 RMK AO2 T01510076
KT35 210135Z AUTO 11004KT 10SM CLR 16/08 A3008 RMK AO2 T01550076
KT35 210115Z AUTO 14005KT 10SM CLR 16/08 A3009 RMK AO2 T01580075
KT35 210055Z AUTO 14005KT 10SM CLR 17/08 A3009 RMK AO2 T01650075
KT35 210035Z AUTO 14005KT 10SM CLR 17/07 A3010 RMK AO2 T01730073
KT35 210015Z AUTO 16007KT 10SM CLR 18/07 A3011 RMK AO2 T01800074
KT35 202355Z AUTO 15007KT 10SM CLR 19/07 A3010 RMK AO2 T01850072 10209 20175
KT35 202335Z AUTO 13009KT 10SM CLR 19/07 A3010 RMK AO2 T01880070
KT35 202315Z AUTO 15007G15KT 10SM CLR 19/07 A3010 RMK AO2 T01930069
KT35 202255Z AUTO 15009KT 10SM CLR 20/07 A3010 RMK AO2 T01950066
KT35 202235Z AUTO 14008KT 10SM CLR 20/07 A3010 RMK AO2 T02020074
KT35 202215Z AUTO 14009KT 10SM CLR 20/07 A3011 RMK AO2 T01980067
KT35 202155Z AUTO 16009KT 10SM CLR 21/07 A3011 RMK AO2 T02050069
KT35 202135Z AUTO 17009KT 10SM CLR 21/07 A3012 RMK AO2 T02070067
KT35 202115Z AUTO 18010G14KT 10SM CLR 21/07 A3013 RMK AO2 T02080072
KT35 202055Z AUTO 11007KT 10SM CLR 21/07 A3014 RMK AO2 T02060072
KT35 202035Z AUTO 13006KT 10SM CLR 20/07 A3015 RMK AO2 T02030072
KT35 202015Z AUTO 12006KT 10SM CLR 20/07 A3016 RMK AO2 T02010070
KT35 201955Z AUTO 10009KT 10SM CLR 20/07 A3016 RMK AO2 T01980071
KT35 201935Z AUTO 09009KT 10SM CLR 20/07 A3017 RMK AO2 T01960070
KT35 201915Z AUTO 10009G14KT 10SM CLR 19/07 A3018 RMK AO2 T01850066
KT35 201855Z AUTO 10008G15KT 10SM CLR 19/07 A3019 RMK AO2 T01900066
KT35 201835Z AUTO 10007KT 10SM CLR 18/06 A3021 RMK AO2 T01830060
KT35 201815Z AUTO 11010G15KT 10SM CLR 19/06 A3022 RMK AO2 T01850060
KT35 201755Z AUTO 11008KT 090V150 10SM CLR 18/06 A3023 RMK AO2 T01800061 10185 20117
KT35 201735Z AUTO 11009G14KT 10SM CLR 18/06 A3024 RMK AO2 T01810064
KT35 201715Z AUTO 10010G15KT 10SM CLR 17/06 A3026 RMK AO2 T01690060
KT35 201655Z AUTO 11011G15KT 10SM CLR 17/05 A3027 RMK AO2 T01650053
KT35 201635Z AUTO 11008KT 10SM CLR 16/06 A3028 RMK AO2 LTG DSNT N T01600056
KT35 201615Z AUTO 11010KT 10SM CLR 16/05 A3028 RMK AO2 T01560053
KT35 201555Z AUTO 10008KT 10SM CLR 16/06 A3028 RMK AO2 T01580056
KT35 201535Z AUTO 11009G16KT 10SM CLR 16/06 A3028 RMK AO2 T01580055
KT35 201515Z AUTO 11009KT 10SM CLR 15/05 A3028 RMK AO2 T01540053